Terminal Aerodrome Forecast
Issued by NWS

Home | Current Version | Previous Version | Text Only | Print | Product List | Glossary On
Versions: 1 2 3 4 5 6 7 8 9 10 11 12 13 14 15 16
488
FTUS46 KHNX 191730
TAFMCE
TAF
KMCE 191730Z 1918/2018 VRB03KT P6SM BKN100
     FM191900 13010KT P6SM OVC040
     FM200000 13012KT P6SM -RA OVC040
      TEMPO 2008/2012 13017G25KT 4SM RA BR OVC030
     FM201200 13020G30KT 6SM -RA OVC025=

USA.gov is the U.S. government's official web portal to all federal, state and local government web resources and services.